sensor_id;sensor_type;location;lat;lon;timestamp;temperature;humidity
4820;DHT22;2424;49.696;6.630;2023-08-31T00:00:14;12.80;99.90
4820;DHT22;2424;49.696;6.630;2023-08-31T00:05:40;12.80;99.90
4820;DHT22;2424;49.696;6.630;2023-08-31T00:11:02;12.80;99.90
4820;DHT22;2424;49.696;6.630;2023-08-31T00:16:24;12.80;99.90
4820;DHT22;2424;49.696;6.630;2023-08-31T00:21:48;12.80;99.90
4820;DHT22;2424;49.696;6.630;2023-08-31T00:27:10;12.80;99.90
4820;DHT22;2424;49.696;6.630;2023-08-31T00:32:32;12.80;99.90
4820;DHT22;2424;49.696;6.630;2023-08-31T00:37:57;12.80;99.90
4820;DHT22;2424;49.696;6.630;2023-08-31T00:43:19;12.70;99.90
4820;DHT22;2424;49.696;6.630;2023-08-31T00:48:41;12.70;99.90
4820;DHT22;2424;49.696;6.630;2023-08-31T00:54:05;12.70;99.90
4820;DHT22;2424;49.696;6.630;2023-08-31T00:59:28;12.60;99.90
4820;DHT22;2424;49.696;6.630;2023-08-31T01:04:58;12.60;99.90
4820;DHT22;2424;49.696;6.630;2023-08-31T01:10:32;12.60;99.90
4820;DHT22;2424;49.696;6.630;2023-08-31T01:16:00;12.60;99.90
4820;DHT22;2424;49.696;6.630;2023-08-31T01:21:27;12.50;99.90
4820;DHT22;2424;49.696;6.630;2023-08-31T01:26:53;12.50;99.90
4820;DHT22;2424;49.696;6.630;2023-08-31T01:32:15;12.40;99.90
4820;DHT22;2424;49.696;6.630;2023-08-31T01:37:42;12.30;99.90
4820;DHT22;2424;49.696;6.630;2023-08-31T01:43:08;12.20;99.90
4820;DHT22;2424;49.696;6.630;2023-08-31T01:48:31;12.20;99.90
4820;DHT22;2424;49.696;6.630;2023-08-31T01:53:59;12.10;99.90
4820;DHT22;2424;49.696;6.630;2023-08-31T01:59:22;12.10;99.90
4820;DHT22;2424;49.696;6.630;2023-08-31T02:04:45;12.00;99.90
4820;DHT22;2424;49.696;6.630;2023-08-31T02:10:08;12.00;99.90
4820;DHT22;2424;49.696;6.630;2023-08-31T02:15:31;11.90;99.90
4820;DHT22;2424;49.696;6.630;2023-08-31T02:20:53;11.90;99.90
4820;DHT22;2424;49.696;6.630;2023-08-31T02:26:15;11.80;99.90
4820;DHT22;2424;49.696;6.630;2023-08-31T02:31:38;11.80;99.90
4820;DHT22;2424;49.696;6.630;2023-08-31T02:37:02;11.70;99.90
4820;DHT22;2424;49.696;6.630;2023-08-31T02:42:24;11.70;99.90
4820;DHT22;2424;49.696;6.630;2023-08-31T02:47:47;11.60;99.90
4820;DHT22;2424;49.696;6.630;2023-08-31T02:53:10;11.60;99.90
4820;DHT22;2424;49.696;6.630;2023-08-31T02:58:32;11.50;99.90
4820;DHT22;2424;49.696;6.630;2023-08-31T03:03:55;11.50;99.90
4820;DHT22;2424;49.696;6.630;2023-08-31T03:09:18;11.50;99.90
4820;DHT22;2424;49.696;6.630;2023-08-31T03:14:41;11.40;99.90
4820;DHT22;2424;49.696;6.630;2023-08-31T03:20:05;11.40;99.90
4820;DHT22;2424;49.696;6.630;2023-08-31T03:25:28;11.40;99.90
4820;DHT22;2424;49.696;6.630;2023-08-31T03:30:54;11.40;99.90
4820;DHT22;2424;49.696;6.630;2023-08-31T03:36:18;11.30;99.90
4820;DHT22;2424;49.696;6.630;2023-08-31T03:41:40;11.40;99.90
4820;DHT22;2424;49.696;6.630;2023-08-31T03:47:02;11.40;99.90
4820;DHT22;2424;49.696;6.630;2023-08-31T03:52:25;11.40;99.90
4820;DHT22;2424;49.696;6.630;2023-08-31T03:57:47;11.30;99.90
4820;DHT22;2424;49.696;6.630;2023-08-31T04:03:09;11.20;99.90
4820;DHT22;2424;49.696;6.630;2023-08-31T04:08:32;11.30;99.90
4820;DHT22;2424;49.696;6.630;2023-08-31T04:13:55;11.20;99.90
4820;DHT22;2424;49.696;6.630;2023-08-31T04:19:16;11.20;99.90
4820;DHT22;2424;49.696;6.630;2023-08-31T04:24:40;11.20;99.90
4820;DHT22;2424;49.696;6.630;2023-08-31T04:30:02;11.20;99.90
4820;DHT22;2424;49.696;6.630;2023-08-31T04:35:24;11.10;99.90
4820;DHT22;2424;49.696;6.630;2023-08-31T04:40:47;11.20;99.90
4820;DHT22;2424;49.696;6.630;2023-08-31T04:46:10;11.10;99.90
4820;DHT22;2424;49.696;6.630;2023-08-31T04:51:33;11.20;99.90
4820;DHT22;2424;49.696;6.630;2023-08-31T04:56:57;11.10;99.90
4820;DHT22;2424;49.696;6.630;2023-08-31T05:02:19;11.20;99.90
4820;DHT22;2424;49.696;6.630;2023-08-31T05:07:41;11.30;99.90
4820;DHT22;2424;49.696;6.630;2023-08-31T05:13:05;11.30;99.90
4820;DHT22;2424;49.696;6.630;2023-08-31T05:18:28;11.20;99.90
4820;DHT22;2424;49.696;6.630;2023-08-31T05:23:50;11.20;99.90
4820;DHT22;2424;49.696;6.630;2023-08-31T05:29:13;11.30;99.90
4820;DHT22;2424;49.696;6.630;2023-08-31T05:34:35;11.30;99.90
4820;DHT22;2424;49.696;6.630;2023-08-31T05:39:59;11.30;99.90
4820;DHT22;2424;49.696;6.630;2023-08-31T05:45:23;11.40;99.90
4820;DHT22;2424;49.696;6.630;2023-08-31T05:50:45;11.50;99.90
4820;DHT22;2424;49.696;6.630;2023-08-31T05:56:07;11.50;99.90
4820;DHT22;2424;49.696;6.630;2023-08-31T06:01:30;11.60;99.90
4820;DHT22;2424;49.696;6.630;2023-08-31T06:06:52;11.70;99.90
4820;DHT22;2424;49.696;6.630;2023-08-31T06:12:14;11.80;99.90
4820;DHT22;2424;49.696;6.630;2023-08-31T06:17:37;11.80;99.90
4820;DHT22;2424;49.696;6.630;2023-08-31T06:23:00;11.80;99.90
4820;DHT22;2424;49.696;6.630;2023-08-31T06:28:22;11.80;99.90
4820;DHT22;2424;49.696;6.630;2023-08-31T06:33:45;11.80;99.90
4820;DHT22;2424;49.696;6.630;2023-08-31T06:39:07;11.80;99.90
4820;DHT22;2424;49.696;6.630;2023-08-31T06:44:29;11.70;99.90
4820;DHT22;2424;49.696;6.630;2023-08-31T06:49:53;11.80;99.90
4820;DHT22;2424;49.696;6.630;2023-08-31T06:55:15;11.90;99.90
4820;DHT22;2424;49.696;6.630;2023-08-31T07:00:37;11.90;99.90
4820;DHT22;2424;49.696;6.630;2023-08-31T07:06:00;11.90;99.90
4820;DHT22;2424;49.696;6.630;2023-08-31T07:11:23;11.90;99.90
4820;DHT22;2424;49.696;6.630;2023-08-31T07:16:45;12.00;99.90
4820;DHT22;2424;49.696;6.630;2023-08-31T07:22:08;12.00;99.90
4820;DHT22;2424;49.696;6.630;2023-08-31T07:27:31;12.10;99.90
4820;DHT22;2424;49.696;6.630;2023-08-31T07:32:53;12.10;99.90
4820;DHT22;2424;49.696;6.630;2023-08-31T07:38:16;12.20;99.90
4820;DHT22;2424;49.696;6.630;2023-08-31T07:43:38;12.40;99.90
4820;DHT22;2424;49.696;6.630;2023-08-31T07:49:00;12.60;99.90
4820;DHT22;2424;49.696;6.630;2023-08-31T07:54:24;12.80;99.90
4820;DHT22;2424;49.696;6.630;2023-08-31T07:59:46;12.90;99.90
4820;DHT22;2424;49.696;6.630;2023-08-31T08:05:08;13.10;99.90
4820;DHT22;2424;49.696;6.630;2023-08-31T08:10:32;13.20;99.90
4820;DHT22;2424;49.696;6.630;2023-08-31T08:15:53;13.30;99.90
4820;DHT22;2424;49.696;6.630;2023-08-31T08:21:15;13.40;99.90
4820;DHT22;2424;49.696;6.630;2023-08-31T08:26:39;13.60;99.90
4820;DHT22;2424;49.696;6.630;2023-08-31T08:32:01;13.70;99.90
4820;DHT22;2424;49.696;6.630;2023-08-31T08:37:24;13.80;99.90
4820;DHT22;2424;49.696;6.630;2023-08-31T08:42:47;14.00;99.90
4820;DHT22;2424;49.696;6.630;2023-08-31T08:48:10;14.10;99.90
4820;DHT22;2424;49.696;6.630;2023-08-31T08:53:32;14.30;99.90
4820;DHT22;2424;49.696;6.630;2023-08-31T08:58:56;14.40;99.90
4820;DHT22;2424;49.696;6.630;2023-08-31T09:04:19;14.50;99.90
4820;DHT22;2424;49.696;6.630;2023-08-31T09:09:51;14.60;99.90
4820;DHT22;2424;49.696;6.630;2023-08-31T09:15:15;14.50;99.90
4820;DHT22;2424;49.696;6.630;2023-08-31T09:20:44;14.60;99.90
4820;DHT22;2424;49.696;6.630;2023-08-31T09:26:06;14.50;99.90
4820;DHT22;2424;49.696;6.630;2023-08-31T09:31:30;14.70;99.90
4820;DHT22;2424;49.696;6.630;2023-08-31T09:36:52;15.00;99.90
4820;DHT22;2424;49.696;6.630;2023-08-31T09:42:14;15.20;99.90
4820;DHT22;2424;49.696;6.630;2023-08-31T09:47:37;15.30;99.90
4820;DHT22;2424;49.696;6.630;2023-08-31T09:53:01;15.40;99.90
4820;DHT22;2424;49.696;6.630;2023-08-31T09:58:25;15.30;99.90
4820;DHT22;2424;49.696;6.630;2023-08-31T10:03:49;15.40;99.90
4820;DHT22;2424;49.696;6.630;2023-08-31T10:09:13;15.60;99.90
4820;DHT22;2424;49.696;6.630;2023-08-31T10:14:35;15.70;99.90
4820;DHT22;2424;49.696;6.630;2023-08-31T10:19:58;15.90;99.90
4820;DHT22;2424;49.696;6.630;2023-08-31T10:25:20;16.00;99.90
4820;DHT22;2424;49.696;6.630;2023-08-31T10:31:00;16.10;99.90
4820;DHT22;2424;49.696;6.630;2023-08-31T10:36:36;16.20;99.90
4820;DHT22;2424;49.696;6.630;2023-08-31T10:42:00;16.30;99.90
4820;DHT22;2424;49.696;6.630;2023-08-31T10:47:36;16.70;99.90
4820;DHT22;2424;49.696;6.630;2023-08-31T10:53:08;16.80;99.90
4820;DHT22;2424;49.696;6.630;2023-08-31T10:58:31;16.90;99.90
4820;DHT22;2424;49.696;6.630;2023-08-31T11:03:58;16.70;99.90
4820;DHT22;2424;49.696;6.630;2023-08-31T11:09:22;16.70;99.90
4820;DHT22;2424;49.696;6.630;2023-08-31T11:14:44;16.70;99.90
4820;DHT22;2424;49.696;6.630;2023-08-31T11:20:06;16.60;99.90
4820;DHT22;2424;49.696;6.630;2023-08-31T11:25:32;16.50;99.90
4820;DHT22;2424;49.696;6.630;2023-08-31T11:30:54;16.50;99.90
4820;DHT22;2424;49.696;6.630;2023-08-31T11:36:16;16.50;99.90
4820;DHT22;2424;49.696;6.630;2023-08-31T11:41:40;16.50;99.90
4820;DHT22;2424;49.696;6.630;2023-08-31T11:47:04;16.50;99.90
4820;DHT22;2424;49.696;6.630;2023-08-31T11:52:27;17.10;99.90
4820;DHT22;2424;49.696;6.630;2023-08-31T11:57:51;17.10;99.90
4820;DHT22;2424;49.696;6.630;2023-08-31T12:03:14;17.60;99.90
4820;DHT22;2424;49.696;6.630;2023-08-31T12:08:37;17.10;99.90
4820;DHT22;2424;49.696;6.630;2023-08-31T12:14:01;16.90;99.90
4820;DHT22;2424;49.696;6.630;2023-08-31T12:19:26;16.80;99.90
4820;DHT22;2424;49.696;6.630;2023-08-31T12:24:48;16.80;99.90
4820;DHT22;2424;49.696;6.630;2023-08-31T12:30:12;16.80;99.90
4820;DHT22;2424;49.696;6.630;2023-08-31T12:35:34;16.90;99.90
4820;DHT22;2424;49.696;6.630;2023-08-31T12:40:56;17.00;99.90
4820;DHT22;2424;49.696;6.630;2023-08-31T12:46:20;17.10;99.90
4820;DHT22;2424;49.696;6.630;2023-08-31T12:51:44;17.40;99.90
4820;DHT22;2424;49.696;6.630;2023-08-31T12:57:05;17.80;99.90
4820;DHT22;2424;49.696;6.630;2023-08-31T13:02:29;17.90;99.90
4820;DHT22;2424;49.696;6.630;2023-08-31T13:07:51;18.10;99.90
4820;DHT22;2424;49.696;6.630;2023-08-31T13:13:13;18.10;99.90
4820;DHT22;2424;49.696;6.630;2023-08-31T13:18:36;18.00;99.90
4820;DHT22;2424;49.696;6.630;2023-08-31T13:23:58;18.10;99.90
4820;DHT22;2424;49.696;6.630;2023-08-31T13:29:20;18.10;99.90
4820;DHT22;2424;49.696;6.630;2023-08-31T13:34:44;18.00;99.90
4820;DHT22;2424;49.696;6.630;2023-08-31T13:40:07;17.70;99.90
4820;DHT22;2424;49.696;6.630;2023-08-31T13:45:30;17.70;99.90
4820;DHT22;2424;49.696;6.630;2023-08-31T13:50:54;17.80;99.90
4820;DHT22;2424;49.696;6.630;2023-08-31T13:56:16;17.90;99.90
4820;DHT22;2424;49.696;6.630;2023-08-31T14:01:40;17.90;99.90
4820;DHT22;2424;49.696;6.630;2023-08-31T14:07:03;17.80;99.90
4820;DHT22;2424;49.696;6.630;2023-08-31T14:12:25;17.70;99.90
4820;DHT22;2424;49.696;6.630;2023-08-31T14:17:47;17.80;99.90
4820;DHT22;2424;49.696;6.630;2023-08-31T14:23:13;17.90;99.90
4820;DHT22;2424;49.696;6.630;2023-08-31T14:28:34;17.70;99.90
4820;DHT22;2424;49.696;6.630;2023-08-31T14:33:56;17.60;99.90
4820;DHT22;2424;49.696;6.630;2023-08-31T14:39:20;17.50;99.90
4820;DHT22;2424;49.696;6.630;2023-08-31T14:44:42;17.40;99.90
4820;DHT22;2424;49.696;6.630;2023-08-31T14:50:05;17.30;99.90
4820;DHT22;2424;49.696;6.630;2023-08-31T14:55:28;17.30;99.90
4820;DHT22;2424;49.696;6.630;2023-08-31T15:00:51;17.30;99.90
4820;DHT22;2424;49.696;6.630;2023-08-31T15:06:16;17.30;99.90
4820;DHT22;2424;49.696;6.630;2023-08-31T15:11:40;17.30;99.90
4820;DHT22;2424;49.696;6.630;2023-08-31T15:17:02;17.30;99.90
4820;DHT22;2424;49.696;6.630;2023-08-31T15:22:24;17.20;99.90
4820;DHT22;2424;49.696;6.630;2023-08-31T15:27:47;17.30;99.90
4820;DHT22;2424;49.696;6.630;2023-08-31T15:33:09;17.30;99.90
4820;DHT22;2424;49.696;6.630;2023-08-31T15:38:31;17.40;99.90
4820;DHT22;2424;49.696;6.630;2023-08-31T15:43:55;17.30;99.90
4820;DHT22;2424;49.696;6.630;2023-08-31T15:49:17;17.30;99.90
4820;DHT22;2424;49.696;6.630;2023-08-31T15:54:39;17.30;99.90
4820;DHT22;2424;49.696;6.630;2023-08-31T16:00:03;17.20;99.90
4820;DHT22;2424;49.696;6.630;2023-08-31T16:05:27;17.20;99.90
4820;DHT22;2424;49.696;6.630;2023-08-31T16:10:48;17.20;99.90
4820;DHT22;2424;49.696;6.630;2023-08-31T16:16:13;17.10;99.90
4820;DHT22;2424;49.696;6.630;2023-08-31T16:21:34;17.10;99.90
4820;DHT22;2424;49.696;6.630;2023-08-31T16:26:56;17.00;99.90
4820;DHT22;2424;49.696;6.630;2023-08-31T16:32:20;16.90;99.90
4820;DHT22;2424;49.696;6.630;2023-08-31T16:37:42;16.80;99.90
4820;DHT22;2424;49.696;6.630;2023-08-31T16:43:04;16.60;99.90
4820;DHT22;2424;49.696;6.630;2023-08-31T16:48:27;16.40;99.90
4820;DHT22;2424;49.696;6.630;2023-08-31T16:53:49;16.10;99.90
4820;DHT22;2424;49.696;6.630;2023-08-31T16:59:11;16.10;99.90
4820;DHT22;2424;49.696;6.630;2023-08-31T17:04:34;16.00;99.90
4820;DHT22;2424;49.696;6.630;2023-08-31T17:09:56;15.90;99.90
4820;DHT22;2424;49.696;6.630;2023-08-31T17:15:18;15.70;99.90
4820;DHT22;2424;49.696;6.630;2023-08-31T17:20:42;15.70;99.90
4820;DHT22;2424;49.696;6.630;2023-08-31T17:26:03;15.50;99.90
4820;DHT22;2424;49.696;6.630;2023-08-31T17:31:25;15.40;99.90
4820;DHT22;2424;49.696;6.630;2023-08-31T17:36:49;15.30;99.90
4820;DHT22;2424;49.696;6.630;2023-08-31T17:42:11;15.30;99.90
4820;DHT22;2424;49.696;6.630;2023-08-31T17:47:33;15.20;99.90
4820;DHT22;2424;49.696;6.630;2023-08-31T17:52:56;15.10;99.90
4820;DHT22;2424;49.696;6.630;2023-08-31T17:58:18;15.00;99.90
4820;DHT22;2424;49.696;6.630;2023-08-31T18:03:40;14.90;99.90
4820;DHT22;2424;49.696;6.630;2023-08-31T18:09:03;14.90;99.90
4820;DHT22;2424;49.696;6.630;2023-08-31T18:14:26;15.00;99.90
4820;DHT22;2424;49.696;6.630;2023-08-31T18:19:48;14.90;99.90
4820;DHT22;2424;49.696;6.630;2023-08-31T18:25:11;14.90;99.90
4820;DHT22;2424;49.696;6.630;2023-08-31T18:30:33;14.90;99.90
4820;DHT22;2424;49.696;6.630;2023-08-31T18:35:56;14.90;99.90
4820;DHT22;2424;49.696;6.630;2023-08-31T18:41:21;14.80;99.90
4820;DHT22;2424;49.696;6.630;2023-08-31T18:46:43;14.80;99.90
4820;DHT22;2424;49.696;6.630;2023-08-31T18:52:05;14.70;99.90
4820;DHT22;2424;49.696;6.630;2023-08-31T18:57:28;14.70;99.90
4820;DHT22;2424;49.696;6.630;2023-08-31T19:02:50;14.70;99.90
4820;DHT22;2424;49.696;6.630;2023-08-31T19:08:12;14.60;99.90
4820;DHT22;2424;49.696;6.630;2023-08-31T19:13:37;14.60;99.90
4820;DHT22;2424;49.696;6.630;2023-08-31T19:18:59;14.50;99.90
4820;DHT22;2424;49.696;6.630;2023-08-31T19:24:22;14.50;99.90
4820;DHT22;2424;49.696;6.630;2023-08-31T19:29:45;14.50;99.90
4820;DHT22;2424;49.696;6.630;2023-08-31T19:35:07;14.50;99.90
4820;DHT22;2424;49.696;6.630;2023-08-31T19:40:29;14.30;99.90
4820;DHT22;2424;49.696;6.630;2023-08-31T19:45:53;14.30;99.90
4820;DHT22;2424;49.696;6.630;2023-08-31T19:51:15;14.30;99.90
4820;DHT22;2424;49.696;6.630;2023-08-31T19:56:38;14.30;99.90
4820;DHT22;2424;49.696;6.630;2023-08-31T20:02:02;14.40;99.90
4820;DHT22;2424;49.696;6.630;2023-08-31T20:07:24;14.30;99.90
4820;DHT22;2424;49.696;6.630;2023-08-31T20:12:46;14.30;99.90
4820;DHT22;2424;49.696;6.630;2023-08-31T20:18:10;14.30;99.90
4820;DHT22;2424;49.696;6.630;2023-08-31T20:23:32;14.40;99.90
4820;DHT22;2424;49.696;6.630;2023-08-31T20:28:54;14.40;99.90
4820;DHT22;2424;49.696;6.630;2023-08-31T20:34:18;14.40;99.90
4820;DHT22;2424;49.696;6.630;2023-08-31T20:39:40;14.40;99.90
4820;DHT22;2424;49.696;6.630;2023-08-31T20:45:06;14.40;99.90
4820;DHT22;2424;49.696;6.630;2023-08-31T20:50:32;14.50;99.90
4820;DHT22;2424;49.696;6.630;2023-08-31T20:55:54;14.50;99.90
4820;DHT22;2424;49.696;6.630;2023-08-31T21:01:16;14.50;99.90
4820;DHT22;2424;49.696;6.630;2023-08-31T21:06:40;14.50;99.90
4820;DHT22;2424;49.696;6.630;2023-08-31T21:12:05;14.50;99.90
4820;DHT22;2424;49.696;6.630;2023-08-31T21:24:30;14.50;99.90
4820;DHT22;2424;49.696;6.630;2023-08-31T21:29:52;14.50;99.90
4820;DHT22;2424;49.696;6.630;2023-08-31T21:35:14;14.50;99.90
4820;DHT22;2424;49.696;6.630;2023-08-31T21:40:39;14.50;99.90
4820;DHT22;2424;49.696;6.630;2023-08-31T21:46:02;14.50;99.90
4820;DHT22;2424;49.696;6.630;2023-08-31T21:51:24;14.50;99.90
4820;DHT22;2424;49.696;6.630;2023-08-31T21:56:48;14.50;99.90
4820;DHT22;2424;49.696;6.630;2023-08-31T22:02:09;14.50;99.90
4820;DHT22;2424;49.696;6.630;2023-08-31T22:07:32;14.50;99.90
4820;DHT22;2424;49.696;6.630;2023-08-31T22:12:58;14.50;99.90
4820;DHT22;2424;49.696;6.630;2023-08-31T22:18:21;14.50;99.90
4820;DHT22;2424;49.696;6.630;2023-08-31T22:23:43;14.50;99.90
4820;DHT22;2424;49.696;6.630;2023-08-31T22:29:06;14.50;99.90
4820;DHT22;2424;49.696;6.630;2023-08-31T22:34:29;14.50;99.90
4820;DHT22;2424;49.696;6.630;2023-08-31T22:39:52;14.50;99.90
4820;DHT22;2424;49.696;6.630;2023-08-31T22:45:15;14.50;99.90
4820;DHT22;2424;49.696;6.630;2023-08-31T22:50:37;14.50;99.90
4820;DHT22;2424;49.696;6.630;2023-08-31T22:55:59;14.50;99.90
4820;DHT22;2424;49.696;6.630;2023-08-31T23:01:23;14.50;99.90
4820;DHT22;2424;49.696;6.630;2023-08-31T23:06:45;14.50;99.90
4820;DHT22;2424;49.696;6.630;2023-08-31T23:12:07;14.50;99.90
4820;DHT22;2424;49.696;6.630;2023-08-31T23:17:30;14.50;99.90
4820;DHT22;2424;49.696;6.630;2023-08-31T23:22:52;14.60;99.90
4820;DHT22;2424;49.696;6.630;2023-08-31T23:28:14;14.60;99.90
4820;DHT22;2424;49.696;6.630;2023-08-31T23:33:37;14.60;99.90
4820;DHT22;2424;49.696;6.630;2023-08-31T23:38:59;14.60;99.90
4820;DHT22;2424;49.696;6.630;2023-08-31T23:44:21;14.60;99.90
4820;DHT22;2424;49.696;6.630;2023-08-31T23:49:45;14.60;99.90
4820;DHT22;2424;49.696;6.630;2023-08-31T23:55:07;14.60;99.90
